Time;durP1;ratioP1;P1;durP2;ratioP2;P2;SDS_P1;SDS_P2;PMS_P1;PMS_P2;Temp;Humidity;BMP_temperature;BMP_pressure;BME280_temperature;BME280_humidity;BME280_pressure;Samples;Min_cycle;Max_cycle;Signal;HPM_P1;HPM_P2
2021/12/06 00:01:16;;;;;;;36.53;17.50;;;;;;;3.18;82.85;99322.09;5502789;32;35006;-68
2021/12/06 00:04:26;;;;;;;35.60;17.57;;;;;;;3.69;79.02;99310.34;5481706;32;34068;-69
2021/12/06 00:07:28;;;;;;;31.70;16.33;;;;;;;3.56;81.76;99341.00;5503058;32;33912;-69
2021/12/06 00:10:31;;;;;;;35.30;16.97;;;;;;;3.83;79.43;99339.38;5500180;32;34665;-68
2021/12/06 00:13:38;;;;;;;35.90;16.57;;;;;;;3.55;80.52;99360.09;5494305;32;33883;-69
2021/12/06 00:16:41;;;;;;;34.43;16.30;;;;;;;3.61;80.99;99367.72;5485710;32;34130;-68
2021/12/06 00:19:45;;;;;;;34.80;17.10;;;;;;;3.13;82.27;99362.88;5467097;32;34185;-68
2021/12/06 00:22:48;;;;;;;32.03;15.90;;;;;;;2.60;83.66;99366.78;5478482;32;34108;-68
2021/12/06 00:25:51;;;;;;;31.50;16.80;;;;;;;3.25;82.84;99372.97;5485938;32;34094;-68
2021/12/06 00:28:57;;;;;;;30.87;16.80;;;;;;;3.72;80.14;99368.25;5498848;32;33899;-70
2021/12/06 00:32:00;;;;;;;31.70;15.30;;;;;;;4.23;76.30;99349.47;5479969;32;34581;-68
2021/12/06 00:35:03;;;;;;;32.20;16.00;;;;;;;4.23;77.48;99351.22;5492056;32;33889;-68
2021/12/06 00:38:05;;;;;;;29.52;14.95;;;;;;;3.95;77.97;99358.97;5492371;32;34255;-68
2021/12/06 00:41:08;;;;;;;29.80;15.53;;;;;;;3.96;79.15;99363.28;5468455;32;34336;-68
2021/12/06 00:44:10;;;;;;;26.77;14.23;;;;;;;2.88;82.73;99366.97;5464416;32;34796;-69
2021/12/06 00:47:12;;;;;;;29.77;14.63;;;;;;;3.45;80.91;99369.00;5495333;32;34066;-67
2021/12/06 00:50:17;;;;;;;29.80;15.30;;;;;;;3.58;81.02;99360.00;5465825;32;32874;-69
2021/12/06 00:53:20;;;;;;;29.47;15.10;;;;;;;2.60;84.81;99365.03;5485936;32;32620;-69
2021/12/06 00:56:22;;;;;;;29.67;14.97;;;;;;;4.03;80.10;99357.00;5478737;32;34227;-68
2021/12/06 00:59:25;;;;;;;28.75;14.73;;;;;;;3.97;79.12;99376.22;5483316;32;34213;-68
2021/12/06 01:02:28;;;;;;;27.60;14.67;;;;;;;3.25;80.50;99383.34;5474940;32;34809;-68
2021/12/06 01:05:31;;;;;;;28.35;14.57;;;;;;;3.60;81.63;99368.59;5465417;32;33949;-69
2021/12/06 01:08:34;;;;;;;29.10;14.37;;;;;;;3.38;82.34;99375.25;5487397;32;33962;-68
2021/12/06 01:11:36;;;;;;;31.40;16.33;;;;;;;2.94;83.56;99383.25;5467646;32;34590;-69
2021/12/06 01:14:39;;;;;;;30.83;14.90;;;;;;;2.97;85.53;99388.38;5472451;32;36172;-68
2021/12/06 01:17:42;;;;;;;30.33;15.20;;;;;;;3.28;83.45;99376.37;5472407;32;35895;-68
2021/12/06 01:24:13;;;;;;;27.03;14.20;;;;;;;2.96;84.86;99359.84;5499058;32;34177;-68
2021/12/06 01:33:53;;;;;;;24.90;13.33;;;;;;;3.47;83.40;99349.03;5484575;32;34393;-69
2021/12/06 01:40:22;;;;;;;27.27;14.07;;;;;;;3.88;81.20;99347.06;5492706;32;33400;-68
2021/12/06 01:43:25;;;;;;;24.20;13.20;;;;;;;4.32;76.80;99335.34;5493412;32;32988;-68
2021/12/06 01:46:27;;;;;;;28.42;15.02;;;;;;;3.01;82.99;99354.56;5495669;32;34709;-68
2021/12/06 01:49:36;;;;;;;24.43;13.77;;;;;;;3.38;84.76;99352.72;5475514;32;34191;-69
2021/12/06 01:52:42;;;;;;;26.37;13.60;;;;;;;3.43;82.21;99339.63;5481701;32;34767;-68
2021/12/06 01:55:45;;;;;;;26.80;14.83;;;;;;;3.46;83.44;99349.91;5497288;32;33209;-68
2021/12/06 01:58:48;;;;;;;24.50;13.27;;;;;;;3.65;82.58;99345.94;5500824;32;34357;-68
2021/12/06 02:01:52;;;;;;;28.35;13.27;;;;;;;4.08;79.60;99344.72;5492000;32;34345;-68
2021/12/06 02:04:56;;;;;;;29.37;14.37;;;;;;;3.96;81.31;99355.47;5477275;32;34022;-68
2021/12/06 02:07:59;;;;;;;22.73;12.87;;;;;;;3.88;80.15;99353.09;5497452;32;35269;-69
2021/12/06 02:11:03;;;;;;;26.30;14.37;;;;;;;4.22;78.26;99355.56;5479189;32;34082;-68
2021/12/06 02:17:23;;;;;;;27.37;14.48;;;;;;;2.97;85.19;99352.06;5499252;32;35025;-68
2021/12/06 02:20:28;;;;;;;29.73;15.33;;;;;;;3.30;85.44;99344.28;5452605;32;33734;-68
2021/12/06 02:23:31;;;;;;;28.87;15.10;;;;;;;3.11;84.63;99328.34;5485406;32;34575;-68
2021/12/06 02:26:36;;;;;;;29.87;15.10;;;;;;;2.62;87.90;99329.53;5496256;32;34829;-68
2021/12/06 02:29:41;;;;;;;27.73;14.23;;;;;;;2.98;85.99;99317.41;5481388;32;35121;-67
2021/12/06 02:32:46;;;;;;;28.47;15.13;;;;;;;3.34;84.96;99317.31;5459703;32;34471;-68
2021/12/06 02:35:48;;;;;;;29.73;15.67;;;;;;;3.08;84.87;99338.78;5478506;32;35955;-68
2021/12/06 02:38:51;;;;;;;30.80;15.27;;;;;;;3.28;85.39;99340.00;5488063;32;34258;-68
2021/12/06 02:41:56;;;;;;;27.13;14.50;;;;;;;3.45;84.52;99333.47;5480188;32;34335;-68
2021/12/06 02:44:59;;;;;;;28.53;14.00;;;;;;;4.23;81.05;99327.81;5485635;32;33773;-68
2021/12/06 02:48:05;;;;;;;30.10;15.10;;;;;;;3.47;82.95;99334.28;5476689;32;34230;-69
2021/12/06 02:51:09;;;;;;;27.83;15.27;;;;;;;3.35;84.09;99336.34;5479976;32;34905;-68
2021/12/06 02:54:11;;;;;;;26.92;14.20;;;;;;;3.12;84.34;99335.22;5497270;32;34772;-67
2021/12/06 03:00:16;;;;;;;25.50;13.07;;;;;;;3.98;81.33;99343.28;5484911;32;35319;-68
2021/12/06 03:03:19;;;;;;;29.27;14.00;;;;;;;3.94;82.14;99347.72;5484058;32;34405;-69
2021/12/06 03:06:23;;;;;;;25.17;13.68;;;;;;;3.70;82.86;99357.06;5499074;32;34204;-69
2021/12/06 03:09:33;;;;;;;26.57;13.23;;;;;;;3.94;80.52;99358.13;5464246;32;34797;-68
2021/12/06 03:12:36;;;;;;;25.20;13.27;;;;;;;3.56;83.73;99358.34;5492207;32;34190;-69
2021/12/06 03:15:38;;;;;;;23.70;13.10;;;;;;;4.28;81.27;99349.34;5471865;32;35226;-68
2021/12/06 03:18:45;;;;;;;25.63;12.70;;;;;;;4.81;78.39;99363.28;5475536;32;33761;-68
2021/12/06 03:21:50;;;;;;;23.57;12.63;;;;;;;3.61;79.85;99364.28;5472744;32;35542;-68
2021/12/06 03:24:53;;;;;;;;;;;;;;;4.22;80.27;99354.72;5465122;32;34518;-68
2021/12/06 03:28:00;;;;;;;23.17;13.17;;;;;;;3.99;79.95;99345.84;5494151;32;33191;-69
2021/12/06 03:31:04;;;;;;;24.30;12.87;;;;;;;4.11;81.07;99347.22;5482924;32;34814;-68
2021/12/06 03:34:08;;;;;;;23.02;13.75;;;;;;;4.14;79.87;99349.75;5463729;32;34018;-69
2021/12/06 03:37:10;;;;;;;22.73;13.00;;;;;;;4.29;77.87;99359.69;5472371;32;647124;-68
2021/12/06 03:40:13;;;;;;;21.80;12.53;;;;;;;3.91;80.13;99372.94;5468549;32;34473;-69
2021/12/06 03:43:16;;;;;;;26.60;13.30;;;;;;;3.97;79.82;99368.44;5483157;32;33893;-68
2021/12/06 03:46:21;;;;;;;22.13;11.93;;;;;;;4.52;78.58;99372.00;5477783;32;33961;-69
2021/12/06 03:49:24;;;;;;;20.80;11.23;;;;;;;4.57;76.02;99379.66;5461394;32;35668;-69
2021/12/06 03:52:28;;;;;;;22.70;11.65;;;;;;;4.31;78.19;99370.88;5500457;32;35374;-70
2021/12/06 03:55:32;;;;;;;21.10;12.03;;;;;;;3.19;82.74;99375.72;5466846;32;33051;-69
2021/12/06 03:58:35;;;;;;;20.17;10.70;;;;;;;3.32;84.58;99372.81;5496599;32;35678;-69
2021/12/06 04:01:38;;;;;;;;;;;;;;;3.47;80.68;99360.25;5481709;32;34439;-68
2021/12/06 04:04:43;;;;;;;20.23;10.97;;;;;;;3.86;79.51;99364.41;5491770;32;34841;-68
2021/12/06 04:07:45;;;;;;;18.50;10.48;;;;;;;2.74;83.14;99359.53;5481806;32;33621;-68
2021/12/06 04:10:48;;;;;;;19.27;10.40;;;;;;;3.11;81.56;99364.69;5470291;32;33358;-68
2021/12/06 04:13:50;;;;;;;20.02;11.05;;;;;;;2.58;85.41;99368.56;5498601;32;36000;-68
2021/12/06 04:16:52;;;;;;;20.30;10.07;;;;;;;2.53;85.46;99371.25;5499469;32;33462;-68
2021/12/06 04:19:55;;;;;;;17.87;9.30;;;;;;;3.17;83.14;99369.72;5485732;32;34208;-69
2021/12/06 04:22:59;;;;;;;18.70;9.43;;;;;;;3.14;82.91;99372.38;5466720;32;33954;-68
2021/12/06 04:26:04;;;;;;;17.17;8.47;;;;;;;3.36;82.60;99364.06;5485343;32;33544;-69
2021/12/06 04:29:07;;;;;;;16.23;8.30;;;;;;;2.95;83.62;99371.13;5478887;32;34780;-68
2021/12/06 04:32:10;;;;;;;14.73;7.55;;;;;;;3.41;82.00;99377.75;5483691;32;34774;-69
2021/12/06 04:35:12;;;;;;;15.47;7.87;;;;;;;3.17;82.52;99367.13;5485292;32;34541;-68
2021/12/06 04:38:15;;;;;;;13.88;7.72;;;;;;;2.88;83.23;99375.63;5491887;32;34270;-68
2021/12/06 04:41:18;;;;;;;17.17;7.90;;;;;;;2.77;84.15;99371.56;5475841;32;34059;-68
2021/12/06 04:44:20;;;;;;;14.83;7.70;;;;;;;2.67;84.46;99378.72;5477485;32;34142;-68
2021/12/06 04:47:23;;;;;;;13.77;7.13;;;;;;;2.85;84.66;99386.09;5492117;32;34672;-68
2021/12/06 04:50:27;;;;;;;15.10;7.83;;;;;;;2.67;85.42;99387.34;5477261;32;34159;-68
2021/12/06 04:53:36;;;;;;;13.32;7.30;;;;;;;3.57;81.44;99384.28;5498131;32;35252;-69
2021/12/06 04:56:42;;;;;;;13.63;7.13;;;;;;;2.94;82.47;99392.78;5494697;32;34144;-69
2021/12/06 04:59:49;;;;;;;12.27;6.53;;;;;;;3.06;83.79;99395.09;5492675;32;33513;-68
2021/12/06 05:02:53;;;;;;;13.17;7.00;;;;;;;3.16;83.79;99394.00;5501840;32;35023;-68
2021/12/06 05:06:06;;;;;;;11.23;6.33;;;;;;;3.19;81.79;99391.31;5466469;32;35154;-68
2021/12/06 05:09:16;;;;;;;13.30;6.90;;;;;;;3.25;82.16;99406.72;5469280;32;34594;-69
2021/12/06 05:12:22;;;;;;;12.20;6.27;;;;;;;3.45;80.87;99413.16;5501939;32;33901;-68
2021/12/06 05:15:25;;;;;;;11.00;6.10;;;;;;;3.58;80.80;99401.56;5477388;32;34246;-68
2021/12/06 05:18:27;;;;;;;11.37;6.23;;;;;;;3.08;81.16;99421.00;5488765;32;34784;-68
2021/12/06 05:21:30;;;;;;;11.07;5.93;;;;;;;2.79;82.92;99427.75;5478917;32;33983;-68
2021/12/06 05:24:32;;;;;;;12.33;6.90;;;;;;;3.01;83.42;99417.69;5495597;32;33884;-68
2021/12/06 05:27:34;;;;;;;11.50;5.67;;;;;;;3.49;81.50;99430.37;5499045;32;34267;-69
2021/12/06 05:30:40;;;;;;;11.40;6.00;;;;;;;3.18;80.41;99433.75;5477950;32;34930;-68
2021/12/06 05:33:50;;;;;;;16.60;7.10;;;;;;;3.67;79.15;99439.44;5487105;32;33333;-69
2021/12/06 05:36:53;;;;;;;12.40;6.30;;;;;;;4.49;75.36;99441.50;5477704;32;33883;-68
2021/12/06 05:39:56;;;;;;;12.53;6.73;;;;;;;3.10;79.21;99440.03;5485073;32;32508;-68
2021/12/06 05:43:00;;;;;;;12.75;7.25;;;;;;;2.95;81.02;99436.03;5479724;32;33531;-68
2021/12/06 05:46:03;;;;;;;14.10;7.27;;;;;;;2.89;81.74;99442.19;5482926;32;37106;-69
2021/12/06 05:49:05;;;;;;;14.53;7.77;;;;;;;3.38;79.73;99440.19;5480751;32;33957;-70
2021/12/06 05:52:09;;;;;;;13.77;7.60;;;;;;;3.33;78.04;99436.84;5492880;32;34984;-69
2021/12/06 05:55:13;;;;;;;14.10;7.70;;;;;;;3.60;78.53;99443.94;5485569;32;34985;-68
2021/12/06 05:58:20;;;;;;;15.52;7.30;;;;;;;4.20;76.26;99442.34;5492860;32;34112;-69
2021/12/06 06:01:29;;;;;;;15.43;7.60;;;;;;;3.30;79.05;99452.53;5484794;32;33927;-69
2021/12/06 06:04:32;;;;;;;14.00;8.20;;;;;;;3.48;78.88;99447.72;5491933;32;32856;-69
2021/12/06 06:07:34;;;;;;;15.03;8.67;;;;;;;3.66;77.47;99440.31;5490373;32;34895;-70
2021/12/06 06:10:37;;;;;;;16.10;8.00;;;;;;;3.97;77.21;99443.81;5488300;32;33568;-70
2021/12/06 06:13:40;;;;;;;15.50;7.80;;;;;;;3.78;77.72;99450.41;5493081;32;34250;-59
2021/12/06 06:16:51;;;;;;;15.00;7.63;;;;;;;3.96;76.31;99455.13;5497536;32;33659;-63
2021/12/06 06:19:56;;;;;;;16.37;8.70;;;;;;;3.37;77.11;99467.91;5492699;32;35209;-67
2021/12/06 06:22:59;;;;;;;16.63;9.10;;;;;;;4.16;75.49;99459.78;5509068;32;32838;-68
2021/12/06 06:26:04;;;;;;;17.27;9.40;;;;;;;4.33;74.75;99470.56;5502238;32;34011;-68
2021/12/06 06:29:07;;;;;;;17.57;8.90;;;;;;;3.60;75.73;99482.91;5486805;32;34462;-62
2021/12/06 06:32:09;;;;;;;16.60;9.07;;;;;;;4.04;76.43;99473.09;5495760;32;35220;-63
2021/12/06 06:35:14;;;;;;;22.37;9.10;;;;;;;3.04;79.18;99472.16;5476794;32;34180;-69
2021/12/06 06:38:17;;;;;;;19.60;9.23;;;;;;;4.11;76.52;99472.03;5469918;32;34793;-71
2021/12/06 06:41:20;;;;;;;17.95;9.82;;;;;;;3.87;77.66;99483.97;5483172;32;34136;-68
2021/12/06 06:44:22;;;;;;;18.67;10.13;;;;;;;4.54;73.81;99476.91;5493450;32;34710;-70
2021/12/06 06:47:25;;;;;;;18.33;9.57;;;;;;;3.68;78.72;99494.00;5497738;32;34689;-68
2021/12/06 06:50:27;;;;;;;17.07;9.57;;;;;;;3.68;76.16;99493.13;5480856;32;34169;-60
2021/12/06 06:53:29;;;;;;;16.37;9.23;;;;;;;3.81;76.43;99502.34;5479641;32;34446;-61
2021/12/06 06:56:33;;;;;;;18.62;10.10;;;;;;;3.43;79.18;99506.72;5491928;32;34721;-70
2021/12/06 06:59:38;;;;;;;17.30;9.40;;;;;;;3.71;78.10;99506.03;5469081;32;35910;-69
2021/12/06 07:02:41;;;;;;;20.50;9.60;;;;;;;4.34;74.06;99503.50;5463819;32;33985;-69
2021/12/06 07:05:44;;;;;;;;;;;;;;;4.86;73.08;99517.59;5488856;32;34861;-66
2021/12/06 07:08:47;;;;;;;16.93;9.27;;;;;;;3.63;76.72;99527.03;5469167;32;34163;-60
2021/12/06 07:11:51;;;;;;;19.77;9.50;;;;;;;4.12;75.77;99535.31;5495846;32;34416;-62
2021/12/06 07:14:53;;;;;;;19.48;10.27;;;;;;;4.92;71.34;99531.34;5496447;32;34156;-64
2021/12/06 07:17:56;;;;;;;20.33;9.90;;;;;;;4.61;72.73;99537.44;5484641;32;33917;-62
2021/12/06 07:20:59;;;;;;;15.67;8.60;;;;;;;3.29;79.08;99541.72;5497866;32;34203;-64
2021/12/06 07:24:03;;;;;;;20.02;10.05;;;;;;;4.60;74.77;99540.94;5467815;32;33687;-61
2021/12/06 07:27:07;;;;;;;18.17;10.32;;;;;;;4.15;75.76;99556.06;5483292;32;33997;-63
2021/12/06 07:30:15;;;;;;;16.70;9.23;;;;;;;4.62;74.53;99559.97;5495538;32;33969;-64
2021/12/06 07:33:19;;;;;;;18.90;10.00;;;;;;;4.39;73.76;99565.81;5491511;32;35278;-71
2021/12/06 07:36:30;;;;;;;18.00;9.00;;;;;;;4.62;73.28;99568.63;5460250;32;34738;-71
2021/12/06 07:39:35;;;;;;;18.03;9.73;;;;;;;3.83;76.64;99559.47;5484566;32;32105;-61
2021/12/06 07:42:37;;;;;;;21.03;10.47;;;;;;;3.86;78.01;99551.59;5500799;32;34143;-63
2021/12/06 07:45:41;;;;;;;20.07;10.63;;;;;;;3.98;77.34;99557.31;5493946;32;34711;-71
2021/12/06 07:48:45;;;;;;;21.20;10.60;;;;;;;4.35;75.95;99562.44;5497258;32;32606;-67
2021/12/06 07:51:48;;;;;;;17.67;9.87;;;;;;;4.52;75.99;99561.97;5505297;32;35084;-64
2021/12/06 07:54:51;;;;;;;20.00;10.40;;;;;;;4.80;74.97;99562.03;5504929;32;36600;-68
2021/12/06 07:57:56;;;;;;;18.20;9.60;;;;;;;5.66;70.12;99557.66;5502864;32;34213;-67
2021/12/06 08:00:59;;;;;;;16.23;8.57;;;;;;;4.86;71.90;99569.69;5488720;32;33739;-73
2021/12/06 08:04:02;;;;;;;17.87;9.48;;;;;;;4.08;76.39;99576.16;5469777;32;34524;-69
2021/12/06 08:07:05;;;;;;;18.07;9.53;;;;;;;4.27;74.26;99572.19;5469067;32;34038;-67
2021/12/06 08:10:08;;;;;;;22.80;9.77;;;;;;;3.73;77.20;99570.06;5483713;32;34261;-72
2021/12/06 08:13:13;;;;;;;18.87;9.93;;;;;;;3.91;75.73;99570.53;5482453;32;34134;-69
2021/12/06 08:16:18;;;;;;;20.93;11.50;;;;;;;4.17;75.31;99578.50;5488625;32;35594;-67
2021/12/06 08:19:21;;;;;;;22.40;11.33;;;;;;;4.36;74.58;99571.09;5484272;32;34766;-72
2021/12/06 08:22:23;;;;;;;22.87;11.33;;;;;;;4.49;74.27;99577.66;5498382;32;34307;-60
2021/12/06 08:25:26;;;;;;;19.60;10.40;;;;;;;4.88;72.82;99575.69;5499950;32;35441;-72
2021/12/06 08:28:31;;;;;;;23.15;11.12;;;;;;;4.21;75.09;99574.94;5472727;32;33981;-69
2021/12/06 08:31:37;;;;;;;21.07;10.37;;;;;;;4.27;74.92;99581.75;5500214;32;34390;-74
2021/12/06 08:34:41;;;;;;;24.07;11.07;;;;;;;4.10;75.78;99589.97;5484729;32;35291;-71
2021/12/06 08:37:43;;;;;;;;;;;;;;;4.76;72.73;99590.81;5472437;32;35351;-65
2021/12/06 08:40:48;;;;;;;23.57;11.60;;;;;;;4.22;75.27;99594.00;5505263;32;35310;-67
2021/12/06 08:43:53;;;;;;;24.07;11.83;;;;;;;4.40;73.67;99590.06;5500005;32;35680;-68
2021/12/06 08:46:56;;;;;;;25.90;11.97;;;;;;;4.23;74.49;99599.16;5500907;32;34187;-67
2021/12/06 08:49:58;;;;;;;23.90;11.90;;;;;;;3.39;79.89;99602.94;5473916;32;34979;-62
2021/12/06 08:53:01;;;;;;;26.03;12.97;;;;;;;4.08;76.14;99596.97;5499118;32;35431;-67
2021/12/06 08:56:08;;;;;;;27.23;12.93;;;;;;;4.06;77.58;99604.81;5509343;32;35205;-70
2021/12/06 08:59:16;;;;;;;28.23;13.33;;;;;;;4.10;76.84;99600.38;5473257;32;33886;-69
2021/12/06 09:02:21;;;;;;;24.07;12.80;;;;;;;4.66;75.16;99602.38;5484647;32;35065;-63
2021/12/06 09:05:48;;;;;;;28.97;13.93;;;;;;;3.96;77.55;99594.66;5481290;32;34301;-65
2021/12/06 09:08:54;;;;;;;29.50;13.80;;;;;;;4.17;76.34;99607.13;5484776;32;35640;-71
2021/12/06 09:11:57;;;;;;;25.67;13.40;;;;;;;4.76;75.55;99603.81;5478289;32;35179;-72
2021/12/06 09:15:03;;;;;;;27.50;14.10;;;;;;;4.75;75.10;99607.31;5497067;32;35297;-72
2021/12/06 09:18:05;;;;;;;28.27;14.30;;;;;;;4.63;75.39;99608.50;5476568;32;35464;-66
2021/12/06 09:21:12;;;;;;;29.93;14.60;;;;;;;4.23;76.37;99609.56;5474720;32;35379;-65
2021/12/06 09:24:17;;;;;;;28.50;14.37;;;;;;;4.40;75.87;99597.87;5460368;32;34688;-66
2021/12/06 09:27:20;;;;;;;27.90;14.70;;;;;;;4.27;76.30;99590.41;5479473;32;33995;-66
2021/12/06 09:30:26;;;;;;;25.67;14.00;;;;;;;5.69;71.48;99572.38;5465994;32;33993;-62
2021/12/06 09:33:30;;;;;;;26.57;13.83;;;;;;;5.04;72.27;99575.25;5503128;32;34052;-64
2021/12/06 09:36:33;;;;;;;24.17;12.67;;;;;;;4.19;75.10;99574.16;5484281;32;34272;-65
2021/12/06 09:39:36;;;;;;;29.70;14.55;;;;;;;4.93;72.46;99570.34;5493312;32;35446;-61
2021/12/06 09:42:42;;;;;;;27.83;14.63;;;;;;;4.80;74.19;99572.47;5486763;32;33154;-62
2021/12/06 09:45:46;;;;;;;24.93;12.93;;;;;;;4.17;77.60;99573.31;5492858;32;33694;-67
2021/12/06 09:48:51;;;;;;;27.27;12.77;;;;;;;4.14;77.08;99575.16;5467500;32;34464;-70
2021/12/06 09:52:00;;;;;;;23.43;12.30;;;;;;;4.76;74.25;99576.03;5455333;32;33900;-67
2021/12/06 09:55:04;;;;;;;22.77;12.70;;;;;;;5.33;71.49;99576.97;5498030;32;34674;-71
2021/12/06 09:58:09;;;;;;;26.17;12.90;;;;;;;4.70;73.01;99572.75;5475531;32;34352;-71
2021/12/06 10:01:21;;;;;;;21.50;10.93;;;;;;;3.82;77.32;99566.41;5484614;32;35176;-75
2021/12/06 10:04:27;;;;;;;21.90;11.80;;;;;;;3.96;77.52;99564.31;5500413;32;33578;-77
2021/12/06 10:07:31;;;;;;;21.00;11.47;;;;;;;4.40;77.23;99558.84;5501375;32;33946;-77
2021/12/06 10:10:35;;;;;;;23.47;11.97;;;;;;;4.89;73.62;99559.19;5505471;32;35377;-68
2021/12/06 10:13:39;;;;;;;19.17;10.63;;;;;;;4.57;73.96;99564.44;5475743;32;34912;-78
2021/12/06 10:16:43;;;;;;;19.80;11.03;;;;;;;5.42;71.83;99546.28;5484740;32;34819;-64
2021/12/06 10:19:46;;;;;;;26.60;10.48;;;;;;;5.73;70.74;99534.84;5501343;32;34171;-69
2021/12/06 10:22:50;;;;;;;21.25;11.30;;;;;;;6.37;66.67;99529.22;5499444;32;33971;-67
2021/12/06 10:25:54;;;;;;;20.63;11.30;;;;;;;4.87;72.33;99532.31;5483735;32;35436;-67
2021/12/06 10:29:04;;;;;;;21.70;11.20;;;;;;;5.52;69.69;99535.56;5474409;32;33831;-68
2021/12/06 10:32:24;;;;;;;20.00;10.17;;;;;;;5.35;70.01;99542.19;5489188;32;34220;-64
2021/12/06 10:35:26;;;;;;;20.73;10.20;;;;;;;5.16;71.71;99536.69;5485323;32;33769;-64
2021/12/06 10:38:36;;;;;;;18.80;10.43;;;;;;;5.25;71.40;99540.75;5488400;32;34135;-67
2021/12/06 10:41:40;;;;;;;19.43;10.10;;;;;;;4.86;72.32;99559.28;5502567;32;33298;-64
2021/12/06 10:44:50;;;;;;;20.37;10.48;;;;;;;4.38;75.79;99568.44;5485112;32;34084;-65
2021/12/06 10:48:19;;;;;;;17.17;9.90;;;;;;;5.56;71.15;99563.25;5500195;32;34108;-69
2021/12/06 10:51:23;;;;;;;21.40;10.87;;;;;;;6.72;66.68;99577.59;5474180;32;35019;-67
2021/12/06 10:54:35;;;;;;;18.10;10.17;;;;;;;6.02;68.24;99593.09;5462947;32;32133;-65
2021/12/06 10:57:49;;;;;;;20.30;10.53;;;;;;;5.82;69.62;99599.75;5476158;32;34778;-70
2021/12/06 11:00:54;;;;;;;19.15;10.32;;;;;;;5.70;69.99;99601.00;5499574;32;34466;-67
2021/12/06 11:04:00;;;;;;;20.37;9.67;;;;;;;5.80;70.46;99617.22;5485010;32;33926;-72
2021/12/06 11:07:08;;;;;;;18.30;9.37;;;;;;;5.52;70.59;99617.22;5497082;32;33993;-71
2021/12/06 11:10:10;;;;;;;16.73;9.40;;;;;;;6.32;68.32;99607.72;5483096;32;34570;-68
2021/12/06 11:13:21;;;;;;;15.40;8.73;;;;;;;5.67;68.69;99605.47;5488082;32;35398;-71
2021/12/06 11:16:27;;;;;;;18.27;9.30;;;;;;;5.27;71.61;99611.87;5478548;32;32916;-74
2021/12/06 11:19:32;;;;;;;15.30;9.00;;;;;;;5.26;72.32;99612.78;5475409;32;34275;-72
2021/12/06 11:22:41;;;;;;;18.83;10.53;;;;;;;6.58;67.21;99622.47;5493243;32;34090;-71
2021/12/06 11:26:01;;;;;;;19.90;9.90;;;;;;;6.38;68.54;99627.53;5483028;32;33904;-70
2021/12/06 11:29:11;;;;;;;19.20;9.80;;;;;;;6.32;67.56;99631.19;5482979;32;35455;-69
2021/12/06 11:32:28;;;;;;;18.50;9.63;;;;;;;6.68;66.14;99625.59;5493476;32;35341;-66
2021/12/06 11:35:33;;;;;;;19.27;10.07;;;;;;;6.58;66.87;99627.69;5499824;32;34276;-75
2021/12/06 11:38:36;;;;;;;16.62;8.93;;;;;;;6.73;64.22;99632.38;5475283;32;33238;-70
2021/12/06 11:41:42;;;;;;;21.47;10.40;;;;;;;6.61;65.12;99637.16;5452302;32;33901;-72
2021/12/06 11:44:46;;;;;;;17.57;9.83;;;;;;;5.55;69.83;99644.97;5505097;32;33875;-71
2021/12/06 11:48:00;;;;;;;19.47;9.27;;;;;;;6.01;66.42;99635.72;5498813;32;34003;-74
2021/12/06 11:51:13;;;;;;;16.43;9.30;;;;;;;5.51;68.23;99652.00;5487256;32;33825;-73
2021/12/06 11:54:16;;;;;;;18.60;9.90;;;;;;;5.81;67.72;99642.41;5494579;32;34101;-64
2021/12/06 11:57:30;;;;;;;19.43;10.10;;;;;;;5.75;66.97;99655.63;5486009;32;35090;-70
2021/12/06 12:00:33;;;;;;;19.80;10.57;;;;;;;6.51;64.80;99642.72;5473574;32;34515;-66
2021/12/06 12:03:41;;;;;;;15.93;8.97;;;;;;;5.88;68.08;99643.91;5485963;32;36200;-66
2021/12/06 12:06:55;;;;;;;18.90;9.17;;;;;;;5.97;67.26;99640.19;5485306;32;34297;-67
2021/12/06 12:09:59;;;;;;;19.15;9.45;;;;;;;6.27;67.43;99640.94;5493854;32;34718;-66
2021/12/06 12:13:03;;;;;;;17.37;10.10;;;;;;;5.80;68.85;99642.44;5478539;32;34879;-67
2021/12/06 12:16:08;;;;;;;17.50;9.18;;;;;;;4.79;71.99;99645.41;5492165;32;34770;-65
2021/12/06 12:19:13;;;;;;;18.07;9.30;;;;;;;5.71;68.53;99627.94;5468393;32;35245;-68
2021/12/06 12:22:16;;;;;;;17.03;8.93;;;;;;;5.46;67.40;99626.97;5493466;32;32992;-65
2021/12/06 12:25:33;;;;;;;17.80;9.50;;;;;;;5.62;68.79;99608.22;5498013;32;33931;-66
2021/12/06 12:28:48;;;;;;;16.80;9.20;;;;;;;5.76;68.87;99605.19;5498200;32;34216;-73
2021/12/06 12:31:56;;;;;;;17.77;8.93;;;;;;;6.02;67.91;99611.34;5492179;32;35536;-76
2021/12/06 12:35:03;;;;;;;15.10;7.93;;;;;;;6.35;66.05;99610.22;5482428;32;33814;-72
2021/12/06 12:38:11;;;;;;;32.80;13.37;;;;;;;6.27;66.91;99606.16;5485784;32;33923;-70
2021/12/06 12:41:17;;;;;;;14.30;7.97;;;;;;;6.08;67.23;99611.13;5500944;32;34234;-78
2021/12/06 12:44:22;;;;;;;15.43;8.30;;;;;;;6.20;66.69;99602.91;5475751;32;33970;-70
2021/12/06 12:47:32;;;;;;;16.73;8.27;;;;;;;6.07;67.53;99599.84;5498857;32;33064;-74
2021/12/06 12:51:11;;;;;;;16.77;7.90;;;;;;;6.58;64.59;99608.56;5496641;32;34214;-65
2021/12/06 12:54:28;;;;;;;13.43;7.30;;;;;;;6.51;64.20;99611.41;5507995;32;34324;-66
2021/12/06 12:57:38;;;;;;;16.47;8.63;;;;;;;5.48;67.78;99622.59;5479273;32;34227;-65
2021/12/06 13:00:47;;;;;;;16.60;7.20;;;;;;;6.28;65.40;99621.75;5478593;32;33899;-70
2021/12/06 13:03:59;;;;;;;13.07;7.10;;;;;;;6.22;64.87;99620.22;5479369;32;35230;-72
2021/12/06 13:07:38;;;;;;;20.30;8.97;;;;;;;6.59;63.34;99623.34;5496679;32;33492;-68
2021/12/06 13:10:46;;;;;;;13.60;6.87;;;;;;;5.95;65.19;99635.00;5480883;32;36712;-72
2021/12/06 13:13:51;;;;;;;15.00;6.70;;;;;;;6.51;64.46;99629.66;5467043;32;34772;-71
2021/12/06 13:17:00;;;;;;;12.03;5.93;;;;;;;6.03;66.41;99639.12;5490817;32;35411;-68
2021/12/06 13:20:11;;;;;;;12.30;6.37;;;;;;;5.86;65.58;99643.13;5476626;32;33559;-68
2021/12/06 13:23:14;;;;;;;13.27;5.60;;;;;;;5.46;67.35;99651.28;5487453;32;34329;-74
2021/12/06 13:26:16;;;;;;;16.63;6.07;;;;;;;5.50;66.00;99646.84;5492740;32;33999;-74
2021/12/06 13:29:23;;;;;;;19.53;6.80;;;;;;;4.94;69.06;99659.75;5499709;32;34854;-73
2021/12/06 13:32:47;;;;;;;18.07;6.20;;;;;;;5.40;68.18;99656.69;5481786;32;33899;-74
2021/12/06 13:35:55;;;;;;;12.60;6.00;;;;;;;5.83;65.82;99650.16;5504263;32;34503;-72
2021/12/06 13:38:59;;;;;;;11.87;6.10;;;;;;;5.83;65.97;99652.78;5498573;32;34175;-72
2021/12/06 13:42:13;;;;;;;13.80;7.03;;;;;;;6.40;64.13;99650.06;5482466;32;35124;-73
2021/12/06 13:45:20;;;;;;;;;;;;;;;4.95;69.21;99654.50;5477979;32;34115;-70
2021/12/06 13:48:35;;;;;;;13.10;6.23;;;;;;;5.28;67.39;99663.13;5480668;32;33086;-70
2021/12/06 13:51:43;;;;;;;12.83;6.57;;;;;;;5.17;68.32;99654.75;5492404;32;34106;-71
2021/12/06 13:54:50;;;;;;;12.77;5.97;;;;;;;5.56;67.88;99646.66;5499874;32;33519;-69
2021/12/06 13:57:57;;;;;;;;;;;;;;;5.80;66.28;99664.16;5475405;32;34040;-68
2021/12/06 14:01:02;;;;;;;12.10;5.60;;;;;;;5.08;69.14;99666.28;5501313;32;34573;-66
2021/12/06 14:04:07;;;;;;;14.90;6.00;;;;;;;6.24;65.01;99669.72;5471564;32;35231;-65
2021/12/06 14:07:14;;;;;;;17.93;5.73;;;;;;;5.15;67.08;99693.88;5473677;32;35925;-66
2021/12/06 14:10:18;;;;;;;15.63;6.50;;;;;;;5.09;68.55;99691.44;5495017;32;35118;-67
2021/12/06 14:13:22;;;;;;;15.57;6.87;;;;;;;4.93;69.74;99686.69;5485139;32;33998;-67
2021/12/06 14:16:29;;;;;;;13.97;6.07;;;;;;;5.63;66.47;99690.75;5497407;32;35254;-69
2021/12/06 14:19:32;;;;;;;15.90;7.30;;;;;;;5.79;66.10;99692.88;5488418;32;31592;-69
2021/12/06 14:22:36;;;;;;;11.73;5.62;;;;;;;5.89;65.94;99686.47;5481493;32;34478;-73
2021/12/06 14:25:48;;;;;;;10.83;5.50;;;;;;;5.67;65.64;99700.19;5496014;32;35329;-68
2021/12/06 14:28:50;;;;;;;11.83;6.20;;;;;;;5.03;68.08;99699.44;5501892;32;33914;-72
2021/12/06 14:31:56;;;;;;;12.30;5.83;;;;;;;5.15;68.70;99701.69;5497997;32;33999;-70
2021/12/06 14:34:58;;;;;;;12.87;5.93;;;;;;;5.15;69.18;99704.31;5474200;32;32715;-72
2021/12/06 14:38:01;;;;;;;13.80;6.67;;;;;;;5.86;66.31;99710.03;5480082;32;33892;-74
2021/12/06 14:41:08;;;;;;;13.47;6.77;;;;;;;6.02;66.04;99710.47;5486163;32;35132;-72
2021/12/06 14:44:10;;;;;;;32.70;18.30;;;;;;;5.97;65.27;99703.63;5496077;32;34574;-68
2021/12/06 14:47:33;;;;;;;12.40;5.63;;;;;;;6.71;62.77;99701.25;5488046;32;34075;-72
2021/12/06 14:50:48;;;;;;;14.53;6.43;;;;;;;5.20;67.15;99708.50;5486718;32;34603;-69